createdAt,value
2023-01-01T00:02:25.002Z,12.73
2023-01-01T00:04:51.734Z,11.13
2023-01-01T00:07:18.325Z,10.67
2023-01-01T00:10:03.248Z,10.60
2023-01-01T00:12:32.284Z,10.80
2023-01-01T00:15:05.757Z,13.57
2023-01-01T00:17:32.427Z,13.97
2023-01-01T00:19:59.154Z,13.77
2023-01-01T00:25:17.776Z,13.93
2023-01-01T00:27:44.727Z,13.73
2023-01-01T00:30:11.833Z,13.97
2023-01-01T00:32:39.407Z,17.63
2023-01-01T00:35:06.637Z,16.83
2023-01-01T00:37:33.214Z,16.40
2023-01-01T00:40:00.389Z,14.67
2023-01-01T00:42:27.075Z,13.93
2023-01-01T00:44:53.703Z,12.93
2023-01-01T00:47:20.329Z,14.17
2023-01-01T00:49:47.118Z,13.40
2023-01-01T00:52:13.788Z,13.47
2023-01-01T00:54:40.344Z,14.07
2023-01-01T00:57:07.261Z,13.93
2023-01-01T00:59:34.065Z,14.63
2023-01-01T01:02:00.766Z,14.50
2023-01-01T01:04:27.391Z,12.67
2023-01-01T01:06:54.046Z,12.37
2023-01-01T01:09:20.783Z,13.20
2023-01-01T01:11:47.886Z,12.23
2023-01-01T01:14:15.100Z,13.60
2023-01-01T01:16:41.790Z,15.93
2023-01-01T01:19:13.901Z,19.17
2023-01-01T01:21:41.075Z,17.70
2023-01-01T01:24:07.832Z,17.57
2023-01-01T01:26:34.585Z,17.03
2023-01-01T01:29:01.303Z,17.43
2023-01-01T01:31:30.776Z,25.33
2023-01-01T01:33:57.794Z,24.45
2023-01-01T01:36:25.639Z,20.57
2023-01-01T01:38:52.453Z,20.90
2023-01-01T01:41:28.023Z,16.00
2023-01-01T01:44:03.918Z,15.17
2023-01-01T01:46:35.291Z,14.50
2023-01-01T01:49:16.768Z,12.87
2023-01-01T01:51:44.755Z,12.93
2023-01-01T01:54:16.686Z,14.73
2023-01-01T01:56:49.900Z,14.50
2023-01-01T01:59:18.617Z,15.10
2023-01-01T02:01:45.374Z,13.97
2023-01-01T02:04:13.219Z,13.67
2023-01-01T02:06:40.315Z,13.53
2023-01-01T02:09:08.791Z,14.77
2023-01-01T02:11:35.376Z,15.07
2023-01-01T02:14:03.190Z,18.47
2023-01-01T02:16:49.830Z,16.90
2023-01-01T02:19:44.239Z,18.53
2023-01-01T02:22:29.367Z,16.63
2023-01-01T02:25:28.888Z,14.67
2023-01-01T02:28:06.274Z,14.88
2023-01-01T02:30:35.262Z,11.70
2023-01-01T02:33:12.301Z,13.23
2023-01-01T02:35:44.149Z,12.73
2023-01-01T02:38:31.623Z,12.63
2023-01-01T02:41:02.774Z,11.30
2023-01-01T02:43:29.555Z,9.83
2023-01-01T02:45:57.062Z,9.97
2023-01-01T02:48:48.282Z,10.97
2023-01-01T02:51:15.216Z,10.37
2023-01-01T02:53:52.077Z,11.93
2023-01-01T02:56:31.757Z,12.23
2023-01-01T02:59:43.032Z,12.88
2023-01-01T03:02:51.306Z,15.87
2023-01-01T03:05:36.209Z,17.13
2023-01-01T03:08:12.120Z,16.70
2023-01-01T03:10:58.819Z,15.10
2023-01-01T03:14:10.844Z,16.23
2023-01-01T03:16:45.822Z,14.43
2023-01-01T03:19:18.365Z,14.57
2023-01-01T03:21:52.088Z,14.60
2023-01-01T03:24:31.012Z,15.17
2023-01-01T03:27:06.092Z,17.87
2023-01-01T03:29:36.024Z,16.60
2023-01-01T03:32:05.751Z,19.55
2023-01-01T03:34:37.439Z,19.60
2023-01-01T03:37:12.233Z,17.63
2023-01-01T03:39:44.622Z,13.50
2023-01-01T03:42:36.888Z,12.03
2023-01-01T03:45:05.600Z,11.93
2023-01-01T03:47:33.059Z,11.20
2023-01-01T03:50:00.626Z,10.27
2023-01-01T03:52:43.240Z,10.50
2023-01-01T03:55:19.587Z,10.50
2023-01-01T03:57:58.417Z,11.00
2023-01-01T04:00:31.201Z,10.90
2023-01-01T04:03:31.315Z,11.17
2023-01-01T04:05:58.061Z,11.27
2023-01-01T04:08:25.098Z,10.63
2023-01-01T04:10:57.391Z,9.93
2023-01-01T04:13:24.126Z,9.30
2023-01-01T04:15:50.990Z,9.83
2023-01-01T04:18:17.814Z,13.47
2023-01-01T04:20:44.414Z,8.93
2023-01-01T04:23:10.957Z,10.47
2023-01-01T04:25:37.582Z,8.63
2023-01-01T04:28:04.456Z,9.83
2023-01-01T04:30:31.200Z,10.03
2023-01-01T04:32:57.868Z,9.43
2023-01-01T04:35:24.474Z,8.97
2023-01-01T04:37:51.192Z,9.93
2023-01-01T04:40:17.947Z,9.77
2023-01-01T04:42:44.577Z,8.93
2023-01-01T04:45:15.083Z,8.30
2023-01-01T04:47:42.187Z,7.70
2023-01-01T04:50:09.262Z,7.43
2023-01-01T04:52:35.892Z,6.80
2023-01-01T04:55:02.763Z,6.50
2023-01-01T04:57:30.984Z,6.20
2023-01-01T04:59:57.561Z,6.83
2023-01-01T05:02:24.439Z,6.70
2023-01-01T05:04:51.246Z,6.43
2023-01-01T05:07:17.872Z,6.00
2023-01-01T05:09:44.409Z,5.97
2023-01-01T05:12:11.038Z,5.87
2023-01-01T05:14:37.673Z,5.90
2023-01-01T05:17:04.327Z,5.83
2023-01-01T05:19:30.969Z,6.03
2023-01-01T05:21:57.556Z,6.37
2023-01-01T05:24:24.177Z,6.33
2023-01-01T05:26:50.796Z,5.83
2023-01-01T05:29:17.814Z,6.30
2023-01-01T05:31:45.298Z,6.37
2023-01-01T05:34:12.044Z,7.17
2023-01-01T05:36:39.832Z,6.90
2023-01-01T05:39:08.561Z,6.47
2023-01-01T05:41:36.814Z,6.97
2023-01-01T05:44:05.942Z,6.53
2023-01-01T05:46:32.938Z,6.65
2023-01-01T05:48:59.947Z,6.40
2023-01-01T05:51:28.668Z,7.07
2023-01-01T05:53:56.137Z,7.37
2023-01-01T05:56:23.568Z,6.47
2023-01-01T05:58:50.299Z,7.13
2023-01-01T06:01:25.307Z,6.50
2023-01-01T06:03:53.844Z,6.90
2023-01-01T06:06:22.940Z,7.10
2023-01-01T06:08:54.389Z,7.30
2023-01-01T06:11:21.711Z,7.67
2023-01-01T06:13:48.885Z,7.50
2023-01-01T06:16:16.696Z,6.80
2023-01-01T06:18:43.268Z,7.60
2023-01-01T06:21:21.147Z,7.77
2023-01-01T06:23:47.996Z,7.70
2023-01-01T06:26:20.591Z,7.00
2023-01-01T06:28:47.997Z,6.40
2023-01-01T06:31:17.261Z,11.53
2023-01-01T06:33:44.133Z,11.05
2023-01-01T06:36:13.452Z,9.97
2023-01-01T06:38:42.698Z,15.20
2023-01-01T06:41:18.232Z,18.17
2023-01-01T06:43:45.894Z,7.37
2023-01-01T06:46:24.383Z,11.70
2023-01-01T06:48:56.662Z,8.73
2023-01-01T06:51:29.331Z,7.27
2023-01-01T06:53:59.553Z,9.53
2023-01-01T06:56:26.376Z,7.70
2023-01-01T06:58:53.108Z,8.70
2023-01-01T07:01:22.567Z,7.17
2023-01-01T07:03:55.877Z,7.30
2023-01-01T07:06:23.467Z,7.00
2023-01-01T07:08:50.453Z,6.23
2023-01-01T07:11:17.185Z,6.47
2023-01-01T07:13:44.206Z,6.50
2023-01-01T07:16:13.299Z,6.67
2023-01-01T07:18:41.310Z,6.85
2023-01-01T07:21:26.624Z,6.70
2023-01-01T07:23:56.645Z,6.00
2023-01-01T07:26:24.837Z,6.87
2023-01-01T07:28:51.852Z,6.57
2023-01-01T07:31:18.651Z,6.90
2023-01-01T07:33:48.137Z,6.50
2023-01-01T07:36:15.702Z,6.93
2023-01-01T07:38:42.258Z,6.20
2023-01-01T07:41:08.843Z,6.20
2023-01-01T07:43:35.606Z,6.33
2023-01-01T07:46:02.907Z,6.50
2023-01-01T07:48:33.341Z,6.60
2023-01-01T07:51:02.699Z,6.33
2023-01-01T07:53:29.293Z,6.23
2023-01-01T07:55:55.982Z,5.77
2023-01-01T07:58:23.116Z,6.20
2023-01-01T08:00:49.917Z,6.20
2023-01-01T08:03:17.673Z,18.53
2023-01-01T08:05:44.692Z,6.30
2023-01-01T08:08:11.718Z,6.23
2023-01-01T08:10:38.538Z,5.70
2023-01-01T08:13:07.679Z,5.50
2023-01-01T08:15:35.037Z,5.70
2023-01-01T08:18:04.607Z,5.20
2023-01-01T08:20:32.430Z,5.72
2023-01-01T08:23:04.599Z,5.87
2023-01-01T08:25:33.516Z,5.30
2023-01-01T08:28:00.185Z,5.70
2023-01-01T08:30:26.961Z,5.57
2023-01-01T08:32:53.617Z,5.37
2023-01-01T08:35:20.323Z,5.90
2023-01-01T08:37:47.143Z,5.33
2023-01-01T08:40:14.360Z,5.10
2023-01-01T08:42:40.991Z,5.10
2023-01-01T08:45:08.552Z,5.43
2023-01-01T08:47:35.154Z,5.27
2023-01-01T08:50:02.712Z,5.47
2023-01-01T08:52:29.476Z,5.23
2023-01-01T08:54:56.122Z,5.60
2023-01-01T08:57:22.849Z,6.17
2023-01-01T08:59:49.507Z,6.40
2023-01-01T09:02:16.256Z,6.60
2023-01-01T09:04:43.023Z,6.73
2023-01-01T09:07:10.058Z,6.47
2023-01-01T09:09:36.696Z,6.23
2023-01-01T09:12:06.477Z,5.87
2023-01-01T09:14:34.442Z,6.03
2023-01-01T09:17:01.324Z,5.93
2023-01-01T09:19:28.111Z,6.43
2023-01-01T09:21:54.895Z,6.80
2023-01-01T09:24:21.535Z,6.90
2023-01-01T09:26:48.533Z,6.30
2023-01-01T09:29:18.756Z,6.03
2023-01-01T09:31:45.678Z,6.40
2023-01-01T09:34:12.685Z,5.53
2023-01-01T09:36:39.602Z,5.90
2023-01-01T09:39:06.596Z,5.93
2023-01-01T09:41:35.746Z,5.87
2023-01-01T09:44:14.152Z,5.82
2023-01-01T09:46:40.882Z,5.70
2023-01-01T09:49:16.741Z,5.60
2023-01-01T09:51:51.126Z,5.60
2023-01-01T09:54:29.710Z,5.93
2023-01-01T09:56:59.644Z,6.40
2023-01-01T09:59:28.341Z,5.60
2023-01-01T10:02:08.061Z,6.28
2023-01-01T10:04:43.439Z,5.60
2023-01-01T10:07:28.177Z,5.60
2023-01-01T10:10:28.406Z,5.27
2023-01-01T10:13:11.237Z,4.70
2023-01-01T10:15:49.886Z,6.10
2023-01-01T10:18:27.973Z,5.93
2023-01-01T10:20:59.299Z,5.70
2023-01-01T10:23:31.565Z,5.43
2023-01-01T10:26:00.551Z,5.87
2023-01-01T10:28:36.486Z,5.80
2023-01-01T10:31:29.443Z,5.13
2023-01-01T10:33:56.940Z,5.70
2023-01-01T10:36:24.580Z,5.47
2023-01-01T10:38:51.571Z,5.67
2023-01-01T10:41:20.095Z,5.30
2023-01-01T10:43:48.995Z,6.03
2023-01-01T10:46:27.619Z,5.43
2023-01-01T10:49:14.520Z,6.10
2023-01-01T10:51:47.566Z,7.20
2023-01-01T10:54:39.115Z,6.70
2023-01-01T10:57:27.267Z,6.67
2023-01-01T10:59:54.767Z,6.40
2023-01-01T11:02:30.932Z,6.77
2023-01-01T11:05:22.044Z,5.60
2023-01-01T11:07:49.859Z,6.00
2023-01-01T11:10:22.720Z,5.83
2023-01-01T11:13:06.658Z,5.97
2023-01-01T11:15:39.572Z,6.13
2023-01-01T11:18:13.347Z,5.97
2023-01-01T11:20:40.919Z,6.20
2023-01-01T11:23:31.965Z,6.37
2023-01-01T11:26:17.352Z,6.57
2023-01-01T11:28:59.844Z,6.20
2023-01-01T11:31:34.251Z,5.70
2023-01-01T11:34:01.283Z,5.73
2023-01-01T11:36:34.222Z,5.67
2023-01-01T11:39:27.067Z,6.37
2023-01-01T11:41:56.654Z,5.90
2023-01-01T11:44:36.636Z,6.30
2023-01-01T11:47:06.089Z,6.10
2023-01-01T11:49:33.836Z,6.80
2023-01-01T11:52:00.976Z,7.00
2023-01-01T11:54:38.200Z,6.53
2023-01-01T11:57:17.173Z,6.87
2023-01-01T11:59:58.614Z,7.18
2023-01-01T12:02:38.358Z,7.10
2023-01-01T12:05:22.543Z,7.10
2023-01-01T12:07:49.801Z,6.13
2023-01-01T12:10:20.762Z,7.10
2023-01-01T12:12:57.932Z,7.63
2023-01-01T12:15:38.613Z,6.87
2023-01-01T12:18:25.471Z,6.23
2023-01-01T12:21:14.784Z,5.50
2023-01-01T12:23:41.420Z,5.40
2023-01-01T12:26:27.487Z,5.03
2023-01-01T12:29:07.495Z,5.87
2023-01-01T12:31:43.861Z,6.20
2023-01-01T12:34:20.824Z,6.73
2023-01-01T12:37:07.275Z,5.80
2023-01-01T12:39:49.036Z,5.90
2023-01-01T12:42:46.092Z,6.57
2023-01-01T12:45:41.483Z,6.33
2023-01-01T12:48:11.120Z,6.33
2023-01-01T12:50:59.864Z,5.83
2023-01-01T12:53:48.141Z,6.93
2023-01-01T12:56:55.371Z,6.63
2023-01-01T12:59:28.919Z,5.90
2023-01-01T13:02:03.067Z,6.20
2023-01-01T13:04:30.361Z,5.80
2023-01-01T13:07:03.790Z,6.50
2023-01-01T13:09:35.606Z,6.87
2023-01-01T13:12:08.324Z,6.10
2023-01-01T13:14:40.553Z,6.20
2023-01-01T13:17:20.270Z,6.50
2023-01-01T13:19:49.230Z,6.03
2023-01-01T13:22:27.668Z,5.47
2023-01-01T13:25:19.382Z,6.60
2023-01-01T13:27:59.529Z,5.70
2023-01-01T13:30:38.806Z,6.67
2023-01-01T13:33:28.883Z,6.32
2023-01-01T13:36:08.335Z,6.53
2023-01-01T13:41:29.939Z,6.27
2023-01-01T13:43:59.242Z,5.90
2023-01-01T13:46:46.718Z,6.60
2023-01-01T13:49:25.511Z,6.37
2023-01-01T13:52:07.451Z,5.90
2023-01-01T13:54:52.110Z,5.93
2023-01-01T13:57:52.823Z,6.20
2023-01-01T14:00:35.998Z,7.40
2023-01-01T14:03:11.751Z,6.03
2023-01-01T14:05:43.590Z,6.07
2023-01-01T14:08:32.114Z,6.40
2023-01-01T14:11:00.848Z,6.28
2023-01-01T14:13:38.756Z,6.43
2023-01-01T14:16:10.805Z,6.10
2023-01-01T14:18:47.489Z,6.10
2023-01-01T14:21:22.681Z,5.93
2023-01-01T14:23:59.819Z,5.70
2023-01-01T14:26:28.359Z,5.90
2023-01-01T14:29:01.777Z,5.83
2023-01-01T14:31:32.273Z,5.53
2023-01-01T14:33:58.919Z,6.13
2023-01-01T14:36:27.480Z,5.80
2023-01-01T14:38:57.310Z,6.00
2023-01-01T14:41:27.792Z,5.87
2023-01-01T14:44:03.336Z,5.90
2023-01-01T14:46:30.843Z,5.93
2023-01-01T14:49:01.291Z,5.97
2023-01-01T14:51:30.663Z,6.43
2023-01-01T14:54:03.512Z,5.78
2023-01-01T14:56:37.030Z,6.13
2023-01-01T14:59:26.883Z,6.53
2023-01-01T15:02:02.556Z,6.23
2023-01-01T15:04:30.207Z,6.67
2023-01-01T15:06:58.763Z,6.10
2023-01-01T15:09:30.507Z,6.47
2023-01-01T15:11:58.816Z,6.77
2023-01-01T15:14:35.926Z,7.50
2023-01-01T15:17:07.702Z,6.90
2023-01-01T15:19:36.591Z,6.87
2023-01-01T15:22:27.173Z,9.07
2023-01-01T15:24:54.601Z,8.40
2023-01-01T15:27:41.636Z,9.57
2023-01-01T15:30:22.247Z,11.47
2023-01-01T15:32:48.944Z,14.47
2023-01-01T15:35:31.629Z,16.37
2023-01-01T15:38:02.258Z,13.87
2023-01-01T15:40:28.855Z,17.90
2023-01-01T15:42:55.438Z,16.60
2023-01-01T15:45:40.569Z,12.63
2023-01-01T15:48:29.829Z,11.53
2023-01-01T15:51:06.428Z,11.77
2023-01-01T15:54:05.051Z,11.80
2023-01-01T15:56:38.599Z,10.57
2023-01-01T15:59:21.991Z,9.10
2023-01-01T16:01:49.158Z,10.53
2023-01-01T16:04:28.985Z,11.30
2023-01-01T16:06:57.522Z,12.93
2023-01-01T16:09:24.149Z,10.77
2023-01-01T16:11:56.634Z,12.87
2023-01-01T16:14:23.893Z,12.43
2023-01-01T16:16:54.977Z,12.50
2023-01-01T16:19:22.467Z,12.07
2023-01-01T16:21:49.253Z,11.80
2023-01-01T16:24:17.984Z,11.67
2023-01-01T16:26:45.099Z,10.65
2023-01-01T16:29:11.798Z,10.23
2023-01-01T16:31:39.243Z,10.47
2023-01-01T16:34:06.199Z,8.43
2023-01-01T16:36:33.189Z,9.30
2023-01-01T16:39:00.104Z,8.03
2023-01-01T16:41:28.972Z,8.20
2023-01-01T16:43:55.757Z,8.52
2023-01-01T16:46:22.411Z,8.63
2023-01-01T16:48:49.218Z,10.07
2023-01-01T16:51:28.660Z,9.13
2023-01-01T16:53:55.606Z,9.10
2023-01-01T16:56:22.130Z,10.53
2023-01-01T16:58:52.150Z,9.43
2023-01-01T17:01:21.608Z,11.90
2023-01-01T17:03:48.824Z,10.20
2023-01-01T17:06:15.531Z,9.57
2023-01-01T17:08:42.207Z,9.87
2023-01-01T17:11:13.927Z,9.47
2023-01-01T17:13:42.258Z,9.77
2023-01-01T17:16:10.281Z,9.17
2023-01-01T17:19:13.309Z,9.70
2023-01-01T17:21:23.738Z,10.13
2023-01-01T17:23:51.166Z,10.50
2023-01-01T17:26:21.164Z,10.87
2023-01-01T17:28:51.555Z,10.70
2023-01-01T17:31:22.736Z,9.57
2023-01-01T17:33:50.739Z,10.43
2023-01-01T17:36:17.657Z,10.83
2023-01-01T17:38:44.593Z,10.73
2023-01-01T17:41:13.793Z,9.83
2023-01-01T17:43:43.230Z,9.85
2023-01-01T17:46:24.681Z,10.52
2023-01-01T17:48:52.285Z,11.10
2023-01-01T17:51:19.739Z,10.90
2023-01-01T17:53:47.480Z,10.37
2023-01-01T17:56:16.259Z,11.80
2023-01-01T17:58:44.952Z,11.20
2023-01-01T18:01:11.612Z,10.43
2023-01-01T18:03:40.132Z,13.53
2023-01-01T18:06:07.685Z,13.07
2023-01-01T18:08:34.466Z,13.57
2023-01-01T18:11:01.288Z,12.70
2023-01-01T18:13:27.994Z,13.47
2023-01-01T18:15:59.222Z,17.37
2023-01-01T18:18:25.837Z,18.40
2023-01-01T18:21:04.616Z,22.53
2023-01-01T18:23:35.843Z,30.83
2023-01-01T18:26:07.473Z,30.90
2023-01-01T18:28:35.024Z,21.20
2023-01-01T18:31:20.507Z,21.70
2023-01-01T18:33:47.773Z,29.33
2023-01-01T18:36:17.046Z,25.80
2023-01-01T18:38:56.995Z,27.77
2023-01-01T18:41:57.429Z,25.87
2023-01-01T18:44:26.485Z,24.23
2023-01-01T18:46:58.663Z,24.35
2023-01-01T18:49:25.627Z,22.97
2023-01-01T18:51:59.126Z,20.57
2023-01-01T18:54:26.152Z,17.63
2023-01-01T18:57:05.925Z,17.63
2023-01-01T18:59:32.589Z,16.65
2023-01-01T19:01:59.457Z,16.23
2023-01-01T19:04:26.370Z,13.43
2023-01-01T19:06:53.346Z,12.83
2023-01-01T19:09:23.405Z,13.27
2023-01-01T19:11:52.672Z,12.20
2023-01-01T19:14:24.836Z,13.52
2023-01-01T19:16:56.555Z,14.73
2023-01-01T19:19:25.803Z,12.97
2023-01-01T19:22:20.333Z,13.20
2023-01-01T19:24:46.920Z,13.20
2023-01-01T19:27:16.934Z,12.23
2023-01-01T19:29:48.565Z,12.93
2023-01-01T19:32:16.288Z,15.47
2023-01-01T19:34:43.119Z,13.03
2023-01-01T19:37:10.544Z,14.37
2023-01-01T19:39:38.186Z,13.63
2023-01-01T19:42:07.153Z,14.20
2023-01-01T19:44:36.378Z,14.57
2023-01-01T19:47:09.187Z,14.93
2023-01-01T19:49:35.890Z,13.70
2023-01-01T19:52:03.738Z,13.13
2023-01-01T19:54:30.519Z,13.63
2023-01-01T19:56:57.491Z,14.33
2023-01-01T19:59:29.260Z,14.93
2023-01-01T20:02:35.022Z,13.50
2023-01-01T20:04:45.938Z,12.80
2023-01-01T20:07:12.874Z,13.50
2023-01-01T20:09:39.562Z,14.10
2023-01-01T20:12:06.434Z,15.33
2023-01-01T20:14:33.116Z,13.13
2023-01-01T20:16:59.669Z,14.47
2023-01-01T20:19:26.214Z,14.80
2023-01-01T20:22:11.450Z,15.43
2023-01-01T20:24:42.568Z,15.13
2023-01-01T20:27:09.994Z,14.67
2023-01-01T20:29:36.699Z,15.77
2023-01-01T20:32:03.884Z,18.23
2023-01-01T20:34:30.971Z,18.27
2023-01-01T20:37:16.094Z,13.47
2023-01-01T20:39:43.633Z,15.13
2023-01-01T20:42:13.166Z,14.33
2023-01-01T20:44:43.312Z,14.60
2023-01-01T20:47:13.674Z,14.70
2023-01-01T20:49:41.854Z,14.63
2023-01-01T20:52:08.892Z,15.63
2023-01-01T20:54:35.627Z,16.60
2023-01-01T20:57:02.382Z,21.10
2023-01-01T20:59:38.577Z,23.13
2023-01-01T21:02:08.352Z,14.80
2023-01-01T21:04:39.577Z,18.90
2023-01-01T21:07:08.622Z,17.77
2023-01-01T21:09:35.703Z,14.20
2023-01-01T21:12:02.402Z,14.87
2023-01-01T21:14:29.080Z,15.37
2023-01-01T21:16:55.780Z,14.50
2023-01-01T21:19:27.240Z,18.60
2023-01-01T21:21:56.318Z,23.87
2023-01-01T21:24:32.850Z,25.70
2023-01-01T21:27:24.871Z,22.93
2023-01-01T21:29:54.167Z,24.80
2023-01-01T21:32:28.032Z,20.57
2023-01-01T21:34:55.478Z,26.27
2023-01-01T21:37:43.583Z,19.77
2023-01-01T21:40:25.326Z,15.87
2023-01-01T21:42:58.419Z,14.70
2023-01-01T21:45:31.609Z,13.53
2023-01-01T21:48:47.852Z,15.30
2023-01-01T21:51:37.636Z,14.47
2023-01-01T21:54:10.437Z,14.82
2023-01-01T21:56:39.617Z,14.97
2023-01-01T21:59:27.037Z,14.73
2023-01-01T22:02:06.285Z,14.93
2023-01-01T22:04:39.363Z,14.30
2023-01-01T22:10:24.012Z,13.90
2023-01-01T22:12:57.145Z,14.53
2023-01-01T22:15:30.181Z,13.37
2023-01-01T22:18:18.089Z,13.07
2023-01-01T22:20:46.329Z,12.93
2023-01-01T22:23:35.511Z,16.57
2023-01-01T22:26:14.001Z,14.97
2023-01-01T22:28:45.973Z,16.73
2023-01-01T22:31:18.714Z,22.60
2023-01-01T22:33:47.441Z,21.43
2023-01-01T22:36:26.359Z,20.50
2023-01-01T22:38:56.073Z,21.77
2023-01-01T22:41:22.786Z,22.65
2023-01-01T22:43:49.853Z,23.03
2023-01-01T22:46:27.516Z,24.23
2023-01-01T22:48:58.519Z,22.77
2023-01-01T22:51:27.944Z,21.90
2023-01-01T22:53:54.584Z,15.77
2023-01-01T22:56:31.541Z,18.47
2023-01-01T22:58:58.091Z,17.47
2023-01-01T23:01:25.048Z,16.20
2023-01-01T23:03:51.793Z,16.07
2023-01-01T23:06:19.392Z,15.10
2023-01-01T23:08:46.390Z,15.40
2023-01-01T23:11:13.338Z,19.07
2023-01-01T23:13:58.524Z,14.97
2023-01-01T23:16:25.222Z,14.33
2023-01-01T23:18:51.873Z,13.53
2023-01-01T23:21:26.477Z,12.43
2023-01-01T23:23:56.145Z,11.77
2023-01-01T23:26:23.670Z,12.50
2023-01-01T23:28:50.520Z,12.83
2023-01-01T23:31:24.793Z,13.23
2023-01-01T23:33:53.062Z,12.50
2023-01-01T23:36:20.010Z,11.50
2023-01-01T23:38:46.861Z,12.77
2023-01-01T23:41:13.490Z,12.00
2023-01-01T23:43:43.516Z,13.53
2023-01-01T23:46:12.775Z,13.50
2023-01-01T23:48:40.797Z,13.73
2023-01-01T23:51:08.015Z,13.97
2023-01-01T23:53:34.829Z,12.53
2023-01-01T23:56:01.578Z,12.07
2023-01-01T23:58:28.347Z,15.27
